UAL618 KBTV-KDEN
Flight info
| Callsign | UAL618 |
|---|---|
| Flight time | 4h 17m |
| Altitude | 36000 |
| Route | DENYU GOATR Q816 AGDOX Q812 NOSIK GRB KP84I ONL PORDR AALLE4 |
| Aircraft | B738/M-VGDW/C |
Departure
| Time | 2026-05-05 21:35 |
|---|---|
| Airport | Patrick Leahy Burlington International Airport (KBTV) |
Arrival
| Time | 2026-05-06 01:53 |
|---|---|
| Airport | Denver International Airport (KDEN) |
| Time | Latitude | Longitude | Altitude | Speed | Heading |
|---|---|---|---|---|---|
| 2026-05-05 21:18 | 44.47076 | -73.15436 | 336 ft | 0 kts | 224° |
| 2026-05-05 21:27 | 44.47077 | -73.15433 | 336 ft | 2 kts | 223° |
| 2026-05-05 21:27 | 44.47089 | -73.15418 | 332 ft | 2 kts | 223° |
| 2026-05-05 21:27 | 44.47102 | -73.15402 | 332 ft | 2 kts | 212° |
| 2026-05-05 21:27 | 44.47114 | -73.15401 | 332 ft | 1 kts | 133° |
| 2026-05-05 21:28 | 44.47115 | -73.15402 | 334 ft | 0 kts | 132° |
| 2026-05-05 21:30 | 44.47101 | -73.15341 | 334 ft | 11 kts | 114° |
| 2026-05-05 21:31 | 44.47046 | -73.15242 | 334 ft | 14 kts | 130° |
| 2026-05-05 21:31 | 44.46986 | -73.15137 | 337 ft | 14 kts | 128° |
| 2026-05-05 21:31 | 44.46929 | -73.15035 | 338 ft | 13 kts | 130° |
| 2026-05-05 21:31 | 44.46869 | -73.14939 | 349 ft | 13 kts | 131° |
| 2026-05-05 21:32 | 44.46811 | -73.14847 | 351 ft | 12 kts | 131° |
| 2026-05-05 21:32 | 44.46786 | -73.14808 | 347 ft | 0 kts | 131° |
| 2026-05-05 21:32 | 44.46785 | -73.14807 | 347 ft | 1 kts | 130° |
| 2026-05-05 21:32 | 44.46749 | -73.14748 | 353 ft | 14 kts | 131° |
| 2026-05-05 21:33 | 44.46681 | -73.14637 | 355 ft | 16 kts | 130° |
| 2026-05-05 21:33 | 44.46601 | -73.14505 | 350 ft | 18 kts | 130° |
| 2026-05-05 21:33 | 44.46520 | -73.14376 | 358 ft | 18 kts | 133° |
| 2026-05-05 21:33 | 44.46546 | -73.14240 | 355 ft | 17 kts | 36° |
| 2026-05-05 21:34 | 44.46636 | -73.14277 | 356 ft | 2 kts | 310° |
| 2026-05-05 21:34 | 44.46636 | -73.14278 | 356 ft | 0 kts | 310° |
| 2026-05-05 21:34 | 44.46646 | -73.14294 | 353 ft | 6 kts | 307° |
| 2026-05-05 21:35 | 44.46815 | -73.14572 | 354 ft | 76 kts | 311° |
| 2026-05-05 21:35 | 44.47334 | -73.15409 | 335 ft | 148 kts | 311° |
| 2026-05-05 21:35 | 44.48093 | -73.16704 | 691 ft | 179 kts | 307° |
| 2026-05-05 21:35 | 44.48924 | -73.18092 | 1442 ft | 197 kts | 308° |
| 2026-05-05 21:36 | 44.49820 | -73.19466 | 2477 ft | 195 kts | 304° |
| 2026-05-05 21:36 | 44.50829 | -73.20922 | 2797 ft | 220 kts | 308° |
| 2026-05-05 21:36 | 44.51961 | -73.22459 | 3147 ft | 230 kts | 309° |
| 2026-05-05 21:36 | 44.53118 | -73.24014 | 3748 ft | 229 kts | 309° |
| 2026-05-05 21:37 | 44.53963 | -73.25792 | 4364 ft | 215 kts | 277° |
| 2026-05-05 21:37 | 44.53784 | -73.27786 | 4993 ft | 208 kts | 248° |
| 2026-05-05 21:37 | 44.53087 | -73.29597 | 5516 ft | 215 kts | 234° |
| 2026-05-05 21:37 | 44.51960 | -73.30998 | 6150 ft | 218 kts | 220° |
| 2026-05-05 21:38 | 44.50685 | -73.32171 | 6692 ft | 220 kts | 218° |
| 2026-05-05 21:38 | 44.49391 | -73.33309 | 7135 ft | 224 kts | 217° |
| 2026-05-05 21:38 | 44.48061 | -73.34471 | 7617 ft | 226 kts | 217° |
| 2026-05-05 21:38 | 44.46727 | -73.35639 | 8131 ft | 227 kts | 217° |
| 2026-05-05 21:39 | 44.45381 | -73.36821 | 8624 ft | 230 kts | 217° |
| 2026-05-05 21:39 | 44.44023 | -73.38016 | 9136 ft | 231 kts | 217° |
| 2026-05-05 21:39 | 44.42657 | -73.39220 | 9649 ft | 233 kts | 217° |
| 2026-05-05 21:39 | 44.41281 | -73.40435 | 10095 ft | 235 kts | 217° |
| 2026-05-05 21:40 | 44.39909 | -73.41646 | 10537 ft | 237 kts | 217° |
| 2026-05-05 21:40 | 44.38513 | -73.42881 | 11040 ft | 236 kts | 217° |
| 2026-05-05 21:40 | 44.37113 | -73.44117 | 11482 ft | 241 kts | 217° |
| 2026-05-05 21:40 | 44.35693 | -73.45371 | 11987 ft | 240 kts | 217° |
| 2026-05-05 21:41 | 44.34293 | -73.46610 | 12402 ft | 242 kts | 217° |
| 2026-05-05 21:41 | 44.32859 | -73.47878 | 12838 ft | 244 kts | 217° |
| 2026-05-05 21:41 | 44.31416 | -73.49152 | 13300 ft | 245 kts | 217° |
| 2026-05-05 21:41 | 44.29966 | -73.50432 | 13684 ft | 247 kts | 217° |
| 2026-05-05 21:42 | 44.28507 | -73.51721 | 14038 ft | 249 kts | 217° |
| 2026-05-05 21:42 | 44.27038 | -73.53017 | 14428 ft | 250 kts | 217° |
| 2026-05-05 21:42 | 44.25581 | -73.54302 | 14712 ft | 254 kts | 218° |
| 2026-05-05 21:42 | 44.24092 | -73.55616 | 15182 ft | 251 kts | 217° |
| 2026-05-05 21:43 | 44.22611 | -73.56919 | 15547 ft | 253 kts | 217° |
| 2026-05-05 21:43 | 44.21108 | -73.58242 | 15879 ft | 256 kts | 217° |
| 2026-05-05 21:43 | 44.19604 | -73.59565 | 16276 ft | 256 kts | 217° |
| 2026-05-05 21:43 | 44.18090 | -73.60896 | 16641 ft | 258 kts | 217° |
| 2026-05-05 21:44 | 44.16585 | -73.62218 | 16986 ft | 259 kts | 217° |
| 2026-05-05 21:44 | 44.15052 | -73.63563 | 17313 ft | 260 kts | 217° |
| 2026-05-05 21:44 | 44.13524 | -73.64910 | 17643 ft | 261 kts | 217° |
| 2026-05-05 21:44 | 44.11979 | -73.66264 | 17947 ft | 263 kts | 217° |
| 2026-05-05 21:45 | 44.10418 | -73.67630 | 18248 ft | 265 kts | 217° |
| 2026-05-05 21:45 | 44.08845 | -73.69008 | 18513 ft | 267 kts | 217° |
| 2026-05-05 21:45 | 44.07285 | -73.70373 | 18799 ft | 268 kts | 217° |
| 2026-05-05 21:45 | 44.05700 | -73.71758 | 19099 ft | 269 kts | 217° |
| 2026-05-05 21:46 | 44.04106 | -73.73153 | 19349 ft | 271 kts | 217° |
| 2026-05-05 21:46 | 44.02503 | -73.74553 | 19621 ft | 272 kts | 217° |
| 2026-05-05 21:46 | 44.00890 | -73.75960 | 19867 ft | 274 kts | 217° |
| 2026-05-05 21:46 | 43.99287 | -73.77361 | 20119 ft | 276 kts | 217° |
| 2026-05-05 21:47 | 43.97652 | -73.78787 | 20403 ft | 277 kts | 217° |
| 2026-05-05 21:47 | 43.96009 | -73.80218 | 20662 ft | 279 kts | 217° |
| 2026-05-05 21:47 | 43.94358 | -73.81656 | 20904 ft | 280 kts | 217° |
| 2026-05-05 21:47 | 43.92696 | -73.83093 | 21130 ft | 282 kts | 217° |
| 2026-05-05 21:48 | 43.91235 | -73.84809 | 21362 ft | 278 kts | 234° |
| 2026-05-05 21:48 | 43.90152 | -73.87018 | 21649 ft | 276 kts | 243° |
| 2026-05-05 21:48 | 43.89435 | -73.89484 | 21842 ft | 277 kts | 252° |
| 2026-05-05 21:48 | 43.88891 | -73.92051 | 22068 ft | 278 kts | 253° |
| 2026-05-05 21:49 | 43.88371 | -73.94642 | 22322 ft | 279 kts | 254° |
| 2026-05-05 21:49 | 43.87852 | -73.97245 | 22569 ft | 280 kts | 254° |
| 2026-05-05 21:49 | 43.87330 | -73.99851 | 22788 ft | 282 kts | 254° |
| 2026-05-05 21:49 | 43.86803 | -74.02455 | 23145 ft | 278 kts | 254° |
| 2026-05-05 21:50 | 43.86273 | -74.05059 | 23236 ft | 283 kts | 254° |
| 2026-05-05 21:50 | 43.85741 | -74.07659 | 23450 ft | 283 kts | 254° |
| 2026-05-05 21:50 | 43.85203 | -74.10282 | 23668 ft | 283 kts | 254° |
| 2026-05-05 21:50 | 43.84661 | -74.12910 | 23869 ft | 283 kts | 254° |
| 2026-05-05 21:51 | 43.84118 | -74.15536 | 24037 ft | 284 kts | 254° |
| 2026-05-05 21:51 | 43.83573 | -74.18168 | 24222 ft | 284 kts | 254° |
| 2026-05-05 21:51 | 43.83032 | -74.20774 | 24400 ft | 285 kts | 254° |
| 2026-05-05 21:51 | 43.82483 | -74.23414 | 24557 ft | 286 kts | 254° |
| 2026-05-05 21:52 | 43.81378 | -74.28711 | 24904 ft | 286 kts | 254° |
| 2026-05-05 21:52 | 43.80824 | -74.31364 | 25076 ft | 287 kts | 254° |
| 2026-05-05 21:52 | 43.80456 | -74.33123 | 25183 ft | 287 kts | 254° |
| 2026-05-05 21:53 | 43.79898 | -74.35787 | 25350 ft | 288 kts | 254° |
| 2026-05-05 21:53 | 43.79162 | -74.39296 | 25660 ft | 285 kts | 254° |
| 2026-05-05 21:53 | 43.78607 | -74.41935 | 25792 ft | 286 kts | 254° |
| 2026-05-05 21:53 | 43.78231 | -74.43724 | 25869 ft | 287 kts | 254° |
| 2026-05-05 21:54 | 43.77678 | -74.46350 | 26008 ft | 287 kts | 254° |
| 2026-05-05 21:54 | 43.77118 | -74.49007 | 26163 ft | 287 kts | 254° |
| 2026-05-05 21:54 | 43.76557 | -74.51665 | 26298 ft | 288 kts | 254° |
| 2026-05-05 21:54 | 43.75992 | -74.54334 | 26429 ft | 289 kts | 254° |
| 2026-05-05 21:55 | 43.75426 | -74.57010 | 26572 ft | 289 kts | 254° |
| 2026-05-05 21:55 | 43.74866 | -74.59654 | 26704 ft | 289 kts | 254° |
| 2026-05-05 21:55 | 43.74297 | -74.62332 | 26825 ft | 290 kts | 254° |
| 2026-05-05 21:55 | 43.73727 | -74.65014 | 26951 ft | 290 kts | 254° |
| 2026-05-05 21:56 | 43.73158 | -74.67690 | 27070 ft | 290 kts | 255° |
| 2026-05-05 21:56 | 43.72584 | -74.70383 | 27198 ft | 291 kts | 255° |
| 2026-05-05 21:56 | 43.72018 | -74.73038 | 27303 ft | 291 kts | 255° |
| 2026-05-05 21:56 | 43.71441 | -74.75737 | 27392 ft | 292 kts | 255° |
| 2026-05-05 21:57 | 43.70864 | -74.78436 | 27535 ft | 292 kts | 255° |
| 2026-05-05 21:57 | 43.70287 | -74.81133 | 27662 ft | 292 kts | 255° |
| 2026-05-05 21:57 | 43.69714 | -74.83802 | 27769 ft | 293 kts | 255° |
| 2026-05-05 21:57 | 43.69135 | -74.86501 | 27886 ft | 293 kts | 255° |
| 2026-05-05 21:58 | 43.68553 | -74.89208 | 27984 ft | 294 kts | 255° |
| 2026-05-05 21:58 | 43.67969 | -74.91921 | 28091 ft | 294 kts | 255° |
| 2026-05-05 21:58 | 43.67383 | -74.94638 | 28178 ft | 294 kts | 255° |
| 2026-05-05 21:58 | 43.66804 | -74.97322 | 28263 ft | 295 kts | 255° |
| 2026-05-05 21:59 | 43.66217 | -75.00038 | 28383 ft | 295 kts | 255° |
| 2026-05-05 21:59 | 43.65630 | -75.02753 | 28474 ft | 295 kts | 255° |
| 2026-05-05 21:59 | 43.65042 | -75.05468 | 28566 ft | 295 kts | 255° |
| 2026-05-05 21:59 | 43.64453 | -75.08181 | 28831 ft | 291 kts | 255° |
| 2026-05-05 22:00 | 43.63874 | -75.10845 | 29015 ft | 289 kts | 255° |
| 2026-05-05 22:00 | 43.63294 | -75.13514 | 29011 ft | 292 kts | 255° |
| 2026-05-05 22:00 | 43.62716 | -75.16173 | 29048 ft | 293 kts | 255° |
| 2026-05-05 22:00 | 43.62126 | -75.18880 | 29116 ft | 293 kts | 255° |
| 2026-05-05 22:01 | 43.61536 | -75.21582 | 29196 ft | 293 kts | 255° |
| 2026-05-05 22:01 | 43.60945 | -75.24284 | 29263 ft | 294 kts | 255° |
| 2026-05-05 22:01 | 43.60352 | -75.26995 | 29322 ft | 294 kts | 255° |
| 2026-05-05 22:01 | 43.59766 | -75.29668 | 29394 ft | 295 kts | 255° |
| 2026-05-05 22:02 | 43.59172 | -75.32374 | 29474 ft | 295 kts | 255° |
| 2026-05-05 22:02 | 43.58577 | -75.35085 | 29540 ft | 295 kts | 255° |
| 2026-05-05 22:02 | 43.57981 | -75.37792 | 29587 ft | 295 kts | 255° |
| 2026-05-05 22:02 | 43.57383 | -75.40510 | 29577 ft | 298 kts | 255° |
| 2026-05-05 22:03 | 43.56777 | -75.43262 | 29594 ft | 302 kts | 255° |
| 2026-05-05 22:03 | 43.55520 | -75.48957 | 29691 ft | 318 kts | 255° |
| 2026-05-05 22:04 | 43.54203 | -75.54905 | 29860 ft | 334 kts | 255° |
| 2026-05-05 22:04 | 43.52811 | -75.61173 | 30008 ft | 349 kts | 255° |
| 2026-05-05 22:05 | 43.51364 | -75.67666 | 30103 ft | 363 kts | 255° |
| 2026-05-05 22:05 | 43.49847 | -75.74448 | 30212 ft | 377 kts | 255° |
| 2026-05-05 22:06 | 43.48274 | -75.81460 | 30451 ft | 386 kts | 255° |
| 2026-05-05 22:06 | 43.47478 | -75.84998 | 30677 ft | 387 kts | 255° |
| 2026-05-05 22:06 | 43.46690 | -75.88494 | 30946 ft | 387 kts | 255° |
| 2026-05-05 22:06 | 43.45893 | -75.92023 | 31355 ft | 383 kts | 255° |
| 2026-05-05 22:07 | 43.45107 | -75.95500 | 31871 ft | 377 kts | 255° |
| 2026-05-05 22:07 | 43.44329 | -75.98932 | 32349 ft | 372 kts | 255° |
| 2026-05-05 22:07 | 43.43561 | -76.02321 | 32722 ft | 369 kts | 255° |
| 2026-05-05 22:07 | 43.42806 | -76.05647 | 33044 ft | 368 kts | 255° |
| 2026-05-05 22:08 | 43.42045 | -76.08997 | 33404 ft | 365 kts | 255° |
| 2026-05-05 22:08 | 43.41290 | -76.12314 | 33805 ft | 361 kts | 255° |
| 2026-05-05 22:08 | 43.40541 | -76.15598 | 34111 ft | 360 kts | 255° |
| 2026-05-05 22:08 | 43.39790 | -76.18888 | 34280 ft | 361 kts | 255° |
| 2026-05-05 22:09 | 43.39036 | -76.22188 | 34417 ft | 362 kts | 255° |
| 2026-05-05 22:09 | 43.38280 | -76.25490 | 34663 ft | 360 kts | 255° |
| 2026-05-05 22:09 | 43.37529 | -76.28767 | 34851 ft | 360 kts | 255° |
| 2026-05-05 22:10 | 43.36010 | -76.35376 | 34909 ft | 367 kts | 255° |
| 2026-05-05 22:10 | 43.34455 | -76.42125 | 35028 ft | 371 kts | 255° |
| 2026-05-05 22:10 | 43.33671 | -76.45518 | 35164 ft | 371 kts | 255° |
| 2026-05-05 22:11 | 43.32898 | -76.48857 | 35320 ft | 371 kts | 255° |
| 2026-05-05 22:11 | 43.32116 | -76.52233 | 35460 ft | 371 kts | 254° |
| 2026-05-05 22:11 | 43.31333 | -76.55609 | 35599 ft | 371 kts | 254° |
| 2026-05-05 22:11 | 43.30548 | -76.58981 | 35753 ft | 370 kts | 254° |
| 2026-05-05 22:12 | 43.29798 | -76.62365 | 35787 ft | 370 kts | 258° |
| 2026-05-05 22:12 | 43.29131 | -76.69300 | 35780 ft | 368 kts | 269° |
| 2026-05-05 22:13 | 43.29235 | -76.76310 | 35787 ft | 366 kts | 269° |
| 2026-05-05 22:13 | 43.29356 | -76.83292 | 35780 ft | 365 kts | 269° |
| 2026-05-05 22:14 | 43.29463 | -76.90202 | 35824 ft | 364 kts | 269° |
| 2026-05-05 22:14 | 43.29559 | -76.97154 | 35826 ft | 364 kts | 269° |
| 2026-05-05 22:15 | 43.29649 | -77.04105 | 35832 ft | 364 kts | 269° |
| 2026-05-05 22:15 | 43.29735 | -77.11069 | 35803 ft | 364 kts | 269° |
| 2026-05-05 22:16 | 43.29815 | -77.17996 | 35823 ft | 365 kts | 269° |
| 2026-05-05 22:16 | 43.29893 | -77.24998 | 35850 ft | 367 kts | 269° |
| 2026-05-05 22:17 | 43.29965 | -77.31985 | 35830 ft | 368 kts | 268° |
| 2026-05-05 22:17 | 43.30035 | -77.39028 | 35822 ft | 369 kts | 268° |
| 2026-05-05 22:18 | 43.30099 | -77.46046 | 35829 ft | 369 kts | 268° |
| 2026-05-05 22:18 | 43.30160 | -77.53111 | 35836 ft | 369 kts | 268° |
| 2026-05-05 22:19 | 43.30216 | -77.60119 | 35868 ft | 369 kts | 268° |
| 2026-05-05 22:19 | 43.30268 | -77.67165 | 35851 ft | 368 kts | 268° |
| 2026-05-05 22:20 | 43.30316 | -77.74183 | 35838 ft | 367 kts | 268° |
| 2026-05-05 22:20 | 43.30359 | -77.81169 | 35842 ft | 366 kts | 268° |
| 2026-05-05 22:21 | 43.30397 | -77.88148 | 35818 ft | 365 kts | 268° |
| 2026-05-05 22:21 | 43.30432 | -77.95120 | 35826 ft | 365 kts | 268° |
| 2026-05-05 22:22 | 43.30462 | -78.02088 | 35842 ft | 365 kts | 268° |
| 2026-05-05 22:22 | 43.30489 | -78.09050 | 35835 ft | 365 kts | 268° |
| 2026-05-05 22:23 | 43.30469 | -78.15901 | 35841 ft | 364 kts | 266° |
| 2026-05-05 22:23 | 43.30288 | -78.22849 | 35842 ft | 364 kts | 266° |
| 2026-05-05 22:24 | 43.30090 | -78.29802 | 35849 ft | 364 kts | 266° |
| 2026-05-05 22:24 | 43.29902 | -78.36748 | 35845 ft | 364 kts | 266° |
| 2026-05-05 22:25 | 43.29718 | -78.43694 | 35846 ft | 364 kts | 266° |
| 2026-05-05 22:25 | 43.29532 | -78.50641 | 35848 ft | 364 kts | 266° |
| 2026-05-05 22:26 | 43.29343 | -78.57549 | 35847 ft | 364 kts | 266° |
| 2026-05-05 22:26 | 43.29149 | -78.64512 | 35849 ft | 364 kts | 266° |
| 2026-05-05 22:27 | 43.28950 | -78.71467 | 35851 ft | 366 kts | 266° |
| 2026-05-05 22:27 | 43.28745 | -78.78485 | 35856 ft | 369 kts | 266° |
| 2026-05-05 22:28 | 43.28537 | -78.85516 | 35829 ft | 368 kts | 266° |
| 2026-05-05 22:28 | 43.28325 | -78.92491 | 35847 ft | 368 kts | 266° |
| 2026-05-05 22:29 | 43.28301 | -78.99523 | 35854 ft | 370 kts | 269° |
| 2026-05-05 22:29 | 43.28387 | -79.06593 | 35859 ft | 370 kts | 269° |
| 2026-05-05 22:30 | 43.28776 | -79.13657 | 35863 ft | 373 kts | 277° |
| 2026-05-05 22:30 | 43.30229 | -79.20505 | 35865 ft | 377 kts | 283° |
| 2026-05-05 22:31 | 43.31911 | -79.27341 | 35858 ft | 377 kts | 283° |
| 2026-05-05 22:31 | 43.33572 | -79.34133 | 35884 ft | 377 kts | 283° |
| 2026-05-05 22:32 | 43.35230 | -79.40980 | 35856 ft | 376 kts | 283° |
| 2026-05-05 22:32 | 43.36869 | -79.47784 | 35852 ft | 376 kts | 283° |
| 2026-05-05 22:33 | 43.38502 | -79.54594 | 35848 ft | 375 kts | 283° |
| 2026-05-05 22:33 | 43.40130 | -79.61402 | 35843 ft | 374 kts | 283° |
| 2026-05-05 22:34 | 43.41743 | -79.68174 | 35848 ft | 374 kts | 283° |
| 2026-05-05 22:34 | 43.43362 | -79.74988 | 35849 ft | 373 kts | 283° |
| 2026-05-05 22:35 | 43.44965 | -79.81755 | 35868 ft | 373 kts | 283° |
| 2026-05-05 22:35 | 43.46572 | -79.88561 | 35853 ft | 373 kts | 283° |
| 2026-05-05 22:36 | 43.48174 | -79.95366 | 35854 ft | 373 kts | 283° |
| 2026-05-05 22:36 | 43.49759 | -80.02129 | 35847 ft | 372 kts | 282° |
| 2026-05-05 22:37 | 43.51350 | -80.08930 | 35842 ft | 372 kts | 283° |
| 2026-05-05 22:37 | 43.52940 | -80.15734 | 35843 ft | 372 kts | 283° |
| 2026-05-05 22:38 | 43.54522 | -80.22535 | 35848 ft | 372 kts | 283° |
| 2026-05-05 22:38 | 43.56089 | -80.29294 | 35841 ft | 372 kts | 283° |
| 2026-05-05 22:39 | 43.57663 | -80.36103 | 35848 ft | 372 kts | 282° |
| 2026-05-05 22:39 | 43.59231 | -80.42909 | 35847 ft | 372 kts | 282° |
| 2026-05-05 22:40 | 43.60789 | -80.49690 | 35854 ft | 372 kts | 282° |
| 2026-05-05 22:40 | 43.62087 | -80.55355 | 35881 ft | 372 kts | 282° |
| 2026-05-05 22:41 | 43.63897 | -80.63283 | 35857 ft | 372 kts | 282° |
| 2026-05-05 22:41 | 43.65189 | -80.68955 | 35886 ft | 372 kts | 282° |
| 2026-05-05 22:42 | 43.67000 | -80.76939 | 35858 ft | 371 kts | 282° |
| 2026-05-05 22:42 | 43.68273 | -80.82562 | 35856 ft | 370 kts | 282° |
| 2026-05-05 22:43 | 43.69805 | -80.89355 | 35860 ft | 370 kts | 282° |
| 2026-05-05 22:43 | 43.71333 | -80.96148 | 35856 ft | 369 kts | 282° |
| 2026-05-05 22:44 | 43.72844 | -81.02891 | 35853 ft | 368 kts | 282° |
| 2026-05-05 22:44 | 43.74355 | -81.09653 | 35852 ft | 368 kts | 282° |
| 2026-05-05 22:45 | 43.75863 | -81.16419 | 35851 ft | 367 kts | 282° |
| 2026-05-05 22:45 | 43.77363 | -81.23175 | 35846 ft | 367 kts | 282° |
| 2026-05-05 22:46 | 43.78849 | -81.29888 | 35865 ft | 367 kts | 282° |
| 2026-05-05 22:46 | 43.80341 | -81.36651 | 35855 ft | 367 kts | 282° |
| 2026-05-05 22:47 | 43.81829 | -81.43414 | 35843 ft | 367 kts | 282° |
| 2026-05-05 22:47 | 43.83305 | -81.50146 | 35840 ft | 367 kts | 282° |
| 2026-05-05 22:48 | 43.84786 | -81.56923 | 35840 ft | 367 kts | 282° |
| 2026-05-05 22:48 | 43.86264 | -81.63706 | 35833 ft | 367 kts | 282° |
| 2026-05-05 22:49 | 43.87729 | -81.70456 | 35835 ft | 367 kts | 281° |
| 2026-05-05 22:49 | 43.89203 | -81.77265 | 35832 ft | 368 kts | 281° |
| 2026-05-05 22:50 | 43.90662 | -81.84023 | 35824 ft | 368 kts | 281° |
| 2026-05-05 22:50 | 43.92127 | -81.90833 | 35826 ft | 368 kts | 281° |
| 2026-05-05 22:51 | 43.93579 | -81.97609 | 35831 ft | 368 kts | 281° |
| 2026-05-05 22:51 | 43.95037 | -82.04436 | 35857 ft | 368 kts | 280° |
| 2026-05-05 22:52 | 43.96493 | -82.11269 | 35834 ft | 369 kts | 280° |
| 2026-05-05 22:52 | 43.97939 | -82.18077 | 35832 ft | 369 kts | 280° |
| 2026-05-05 22:53 | 43.98977 | -82.25007 | 35833 ft | 365 kts | 275° |
| 2026-05-05 22:53 | 43.99802 | -82.31929 | 35830 ft | 365 kts | 275° |
| 2026-05-05 22:54 | 44.00634 | -82.38899 | 35826 ft | 365 kts | 275° |
| 2026-05-05 22:54 | 44.01468 | -82.45872 | 35821 ft | 366 kts | 275° |
| 2026-05-05 22:55 | 44.02298 | -82.52804 | 35824 ft | 367 kts | 275° |
| 2026-05-05 22:55 | 44.03133 | -82.59803 | 35820 ft | 367 kts | 275° |
| 2026-05-05 22:56 | 44.03966 | -82.66832 | 35817 ft | 368 kts | 275° |
| 2026-05-05 22:56 | 44.04791 | -82.73817 | 35812 ft | 368 kts | 275° |
| 2026-05-05 22:57 | 44.05616 | -82.80847 | 35821 ft | 368 kts | 275° |
| 2026-05-05 22:57 | 44.06438 | -82.87886 | 35811 ft | 369 kts | 275° |
| 2026-05-05 22:58 | 44.07251 | -82.94890 | 35807 ft | 368 kts | 275° |
| 2026-05-05 22:58 | 44.08064 | -83.01936 | 35808 ft | 368 kts | 275° |
| 2026-05-05 22:59 | 44.08873 | -83.08989 | 35807 ft | 368 kts | 275° |
| 2026-05-05 22:59 | 44.09672 | -83.15990 | 35854 ft | 368 kts | 275° |
| 2026-05-05 23:00 | 44.10870 | -83.26560 | 35810 ft | 368 kts | 275° |
| 2026-05-05 23:00 | 44.11657 | -83.33547 | 35810 ft | 367 kts | 275° |
| 2026-05-05 23:01 | 44.12444 | -83.40579 | 35807 ft | 366 kts | 275° |
| 2026-05-05 23:01 | 44.13219 | -83.47551 | 35806 ft | 366 kts | 275° |
| 2026-05-05 23:02 | 44.13995 | -83.54567 | 35833 ft | 365 kts | 275° |
| 2026-05-05 23:02 | 44.14760 | -83.61521 | 35815 ft | 365 kts | 275° |
| 2026-05-05 23:03 | 44.15525 | -83.68514 | 35806 ft | 364 kts | 275° |
| 2026-05-05 23:03 | 44.16284 | -83.75497 | 35806 ft | 364 kts | 275° |
| 2026-05-05 23:04 | 44.17033 | -83.82427 | 35812 ft | 364 kts | 275° |
| 2026-05-05 23:04 | 44.17783 | -83.89411 | 35816 ft | 364 kts | 275° |
| 2026-05-05 23:05 | 44.18524 | -83.96352 | 35823 ft | 363 kts | 275° |
| 2026-05-05 23:05 | 44.19264 | -84.03329 | 35819 ft | 363 kts | 275° |
| 2026-05-05 23:06 | 44.19995 | -84.10254 | 35827 ft | 363 kts | 275° |
| 2026-05-05 23:06 | 44.20727 | -84.17230 | 35822 ft | 363 kts | 275° |
| 2026-05-05 23:07 | 44.21454 | -84.24204 | 35829 ft | 363 kts | 275° |
| 2026-05-05 23:07 | 44.22177 | -84.31177 | 35834 ft | 363 kts | 275° |
| 2026-05-05 23:08 | 44.22890 | -84.38102 | 35821 ft | 363 kts | 275° |
| 2026-05-05 23:08 | 44.23605 | -84.45085 | 35818 ft | 363 kts | 275° |
| 2026-05-05 23:09 | 44.24314 | -84.52057 | 35826 ft | 363 kts | 275° |
| 2026-05-05 23:09 | 44.25020 | -84.59036 | 35824 ft | 363 kts | 275° |
| 2026-05-05 23:10 | 44.25716 | -84.65967 | 35832 ft | 363 kts | 275° |
| 2026-05-05 23:10 | 44.26412 | -84.72942 | 35843 ft | 363 kts | 275° |
| 2026-05-05 23:11 | 44.27105 | -84.79925 | 35837 ft | 363 kts | 275° |
| 2026-05-05 23:11 | 44.27792 | -84.86898 | 35844 ft | 363 kts | 275° |
| 2026-05-05 23:12 | 44.28471 | -84.93823 | 35842 ft | 362 kts | 275° |
| 2026-05-05 23:12 | 44.29149 | -85.00797 | 35844 ft | 362 kts | 275° |
| 2026-05-05 23:13 | 44.29825 | -85.07785 | 35833 ft | 363 kts | 275° |
| 2026-05-05 23:13 | 44.30491 | -85.14727 | 35835 ft | 363 kts | 275° |
| 2026-05-05 23:14 | 44.31159 | -85.21721 | 35846 ft | 363 kts | 275° |
| 2026-05-05 23:14 | 44.31822 | -85.28718 | 35850 ft | 362 kts | 275° |
| 2026-05-05 23:15 | 44.32476 | -85.35662 | 35846 ft | 362 kts | 275° |
| 2026-05-05 23:15 | 44.33130 | -85.42653 | 35891 ft | 363 kts | 275° |
| 2026-05-05 23:16 | 44.33782 | -85.49673 | 35854 ft | 364 kts | 275° |
| 2026-05-05 23:16 | 44.34429 | -85.56687 | 35847 ft | 364 kts | 275° |
| 2026-05-05 23:17 | 44.35069 | -85.63668 | 35847 ft | 364 kts | 275° |
| 2026-05-05 23:17 | 44.35708 | -85.70684 | 35853 ft | 364 kts | 275° |
| 2026-05-05 23:18 | 44.36343 | -85.77711 | 35846 ft | 364 kts | 275° |
| 2026-05-05 23:18 | 44.36970 | -85.84702 | 35846 ft | 364 kts | 275° |
| 2026-05-05 23:19 | 44.37598 | -85.91743 | 35855 ft | 364 kts | 275° |
| 2026-05-05 23:19 | 44.38220 | -85.98774 | 35853 ft | 364 kts | 275° |
| 2026-05-05 23:20 | 44.38835 | -86.05776 | 35855 ft | 364 kts | 275° |
| 2026-05-05 23:20 | 44.39444 | -86.12763 | 35854 ft | 363 kts | 275° |
| 2026-05-05 23:21 | 44.40054 | -86.19800 | 35858 ft | 364 kts | 275° |
| 2026-05-05 23:21 | 44.40659 | -86.26844 | 35861 ft | 364 kts | 275° |
| 2026-05-05 23:22 | 44.41256 | -86.33843 | 35861 ft | 364 kts | 274° |
| 2026-05-05 23:22 | 44.41855 | -86.40909 | 35860 ft | 365 kts | 274° |
| 2026-05-05 23:23 | 44.42444 | -86.47924 | 35861 ft | 365 kts | 274° |
| 2026-05-05 23:23 | 44.43034 | -86.54993 | 35860 ft | 365 kts | 274° |
| 2026-05-05 23:24 | 44.43620 | -86.62073 | 35865 ft | 366 kts | 274° |
| 2026-05-05 23:24 | 44.44199 | -86.69112 | 35856 ft | 366 kts | 274° |
| 2026-05-05 23:25 | 44.44778 | -86.76210 | 35852 ft | 366 kts | 274° |
| 2026-05-05 23:25 | 44.45351 | -86.83296 | 35849 ft | 366 kts | 274° |
| 2026-05-05 23:26 | 44.45920 | -86.90388 | 35854 ft | 367 kts | 274° |
| 2026-05-05 23:26 | 44.46470 | -86.97289 | 35868 ft | 366 kts | 274° |
| 2026-05-05 23:27 | 44.47030 | -87.04377 | 35859 ft | 366 kts | 274° |
| 2026-05-05 23:27 | 44.47585 | -87.11458 | 35845 ft | 366 kts | 274° |
| 2026-05-05 23:28 | 44.48120 | -87.18335 | 35852 ft | 365 kts | 274° |
| 2026-05-05 23:28 | 44.48665 | -87.25407 | 35851 ft | 365 kts | 274° |
| 2026-05-05 23:29 | 44.49206 | -87.32477 | 35854 ft | 365 kts | 274° |
| 2026-05-05 23:29 | 44.49743 | -87.39548 | 35856 ft | 365 kts | 274° |
| 2026-05-05 23:30 | 44.50175 | -87.45282 | 35858 ft | 365 kts | 274° |
| 2026-05-05 23:30 | 44.50783 | -87.53421 | 35859 ft | 365 kts | 274° |
| 2026-05-05 23:31 | 44.51304 | -87.60462 | 35855 ft | 365 kts | 274° |
| 2026-05-05 23:31 | 44.51824 | -87.67555 | 35855 ft | 365 kts | 274° |
| 2026-05-05 23:32 | 44.52336 | -87.74595 | 35864 ft | 365 kts | 274° |
| 2026-05-05 23:32 | 44.52848 | -87.81685 | 35861 ft | 365 kts | 274° |
| 2026-05-05 23:33 | 44.53354 | -87.88771 | 35866 ft | 365 kts | 274° |
| 2026-05-05 23:33 | 44.53772 | -87.94663 | 35867 ft | 365 kts | 274° |
| 2026-05-05 23:34 | 44.54352 | -88.02912 | 35871 ft | 365 kts | 274° |
| 2026-05-05 23:34 | 44.54763 | -88.08804 | 35868 ft | 365 kts | 274° |
| 2026-05-05 23:35 | 44.55252 | -88.15909 | 35868 ft | 365 kts | 272° |
| 2026-05-05 23:35 | 44.55087 | -88.22959 | 35871 ft | 364 kts | 262° |
| 2026-05-05 23:36 | 44.54185 | -88.29948 | 35876 ft | 364 kts | 261° |
| 2026-05-05 23:36 | 44.53268 | -88.36892 | 35875 ft | 364 kts | 261° |
| 2026-05-05 23:37 | 44.52349 | -88.43888 | 35877 ft | 365 kts | 261° |
| 2026-05-05 23:37 | 44.51433 | -88.50878 | 35907 ft | 365 kts | 261° |
| 2026-05-05 23:38 | 44.50511 | -88.57893 | 35903 ft | 366 kts | 261° |
| 2026-05-05 23:38 | 44.49586 | -88.64908 | 35906 ft | 366 kts | 261° |
| 2026-05-05 23:39 | 44.48662 | -88.71880 | 35905 ft | 366 kts | 261° |
| 2026-05-05 23:39 | 44.47726 | -88.78904 | 35906 ft | 366 kts | 261° |
| 2026-05-05 23:40 | 44.46793 | -88.85876 | 35915 ft | 366 kts | 261° |
| 2026-05-05 23:40 | 44.45847 | -88.92916 | 35920 ft | 367 kts | 261° |
| 2026-05-05 23:41 | 44.44901 | -88.99910 | 35916 ft | 367 kts | 261° |
| 2026-05-05 23:41 | 44.43946 | -89.06944 | 35898 ft | 368 kts | 261° |
| 2026-05-05 23:42 | 44.42992 | -89.13937 | 35906 ft | 368 kts | 261° |
| 2026-05-05 23:42 | 44.42026 | -89.20980 | 35905 ft | 368 kts | 261° |
| 2026-05-05 23:43 | 44.41059 | -89.27999 | 35894 ft | 366 kts | 260° |
| 2026-05-05 23:43 | 44.40098 | -89.34939 | 35902 ft | 365 kts | 260° |
| 2026-05-05 23:44 | 44.39128 | -89.41914 | 35908 ft | 364 kts | 260° |
| 2026-05-05 23:44 | 44.38157 | -89.48858 | 35916 ft | 364 kts | 260° |
| 2026-05-05 23:45 | 44.37190 | -89.55752 | 35906 ft | 363 kts | 260° |
| 2026-05-05 23:45 | 44.36211 | -89.62692 | 35906 ft | 363 kts | 260° |
| 2026-05-05 23:46 | 44.35229 | -89.69621 | 35908 ft | 363 kts | 260° |
| 2026-05-05 23:46 | 44.34249 | -89.76509 | 35905 ft | 363 kts | 260° |
| 2026-05-05 23:47 | 44.33257 | -89.83443 | 35906 ft | 363 kts | 260° |
| 2026-05-05 23:47 | 44.32261 | -89.90378 | 35903 ft | 363 kts | 260° |
| 2026-05-05 23:48 | 44.31267 | -89.97269 | 35906 ft | 363 kts | 260° |
| 2026-05-05 23:48 | 44.30261 | -90.04206 | 35910 ft | 364 kts | 260° |
| 2026-05-05 23:49 | 44.29258 | -90.11097 | 35914 ft | 364 kts | 260° |
| 2026-05-05 23:49 | 44.28242 | -90.18045 | 35908 ft | 364 kts | 260° |
| 2026-05-05 23:50 | 44.27227 | -90.24952 | 35907 ft | 365 kts | 260° |
| 2026-05-05 23:50 | 44.26203 | -90.31895 | 35909 ft | 365 kts | 260° |
| 2026-05-05 23:51 | 44.25180 | -90.38794 | 35911 ft | 365 kts | 259° |
| 2026-05-05 23:51 | 44.24145 | -90.45746 | 35913 ft | 365 kts | 259° |
| 2026-05-05 23:52 | 44.23112 | -90.52653 | 35911 ft | 366 kts | 259° |
| 2026-05-05 23:52 | 44.22067 | -90.59611 | 35900 ft | 365 kts | 259° |
| 2026-05-05 23:53 | 44.21029 | -90.66493 | 35903 ft | 364 kts | 259° |
| 2026-05-05 23:53 | 44.19983 | -90.73395 | 35908 ft | 363 kts | 259° |
| 2026-05-05 23:54 | 44.18935 | -90.80282 | 35911 ft | 363 kts | 259° |
| 2026-05-05 23:54 | 44.17890 | -90.87119 | 35905 ft | 363 kts | 259° |
| 2026-05-05 23:55 | 44.16834 | -90.94003 | 35916 ft | 363 kts | 259° |
| 2026-05-05 23:55 | 44.15775 | -91.00873 | 35917 ft | 362 kts | 259° |
| 2026-05-05 23:56 | 44.14719 | -91.07695 | 35917 ft | 362 kts | 259° |
| 2026-05-05 23:56 | 44.13652 | -91.14561 | 35921 ft | 362 kts | 259° |
| 2026-05-05 23:57 | 44.12580 | -91.21433 | 35914 ft | 363 kts | 259° |
| 2026-05-05 23:57 | 44.11509 | -91.28269 | 35924 ft | 363 kts | 258° |
| 2026-05-05 23:58 | 44.10426 | -91.35148 | 35912 ft | 363 kts | 258° |
| 2026-05-05 23:58 | 44.09347 | -91.41977 | 35930 ft | 363 kts | 258° |
| 2026-05-05 23:59 | 44.08256 | -91.48851 | 35930 ft | 363 kts | 258° |
| 2026-05-05 23:59 | 44.07161 | -91.55722 | 35936 ft | 364 kts | 258° |
| 2026-05-06 00:00 | 44.06062 | -91.62594 | 35924 ft | 364 kts | 258° |
| 2026-05-06 00:00 | 44.04962 | -91.69437 | 35929 ft | 364 kts | 258° |
| 2026-05-06 00:01 | 44.03853 | -91.76312 | 35931 ft | 364 kts | 258° |
| 2026-05-06 00:01 | 44.02745 | -91.83157 | 35922 ft | 364 kts | 258° |
| 2026-05-06 00:02 | 44.01627 | -91.90036 | 35932 ft | 364 kts | 258° |
| 2026-05-06 00:02 | 44.00513 | -91.96866 | 35926 ft | 364 kts | 258° |
| 2026-05-06 00:03 | 43.99336 | -92.03712 | 35928 ft | 363 kts | 256° |
| 2026-05-06 00:03 | 43.98000 | -92.10492 | 35935 ft | 363 kts | 256° |
| 2026-05-06 00:04 | 43.96656 | -92.17222 | 35933 ft | 363 kts | 256° |
| 2026-05-06 00:04 | 43.95310 | -92.24002 | 35934 ft | 363 kts | 256° |
| 2026-05-06 00:05 | 43.93305 | -92.34137 | 35925 ft | 363 kts | 256° |
| 2026-05-06 00:06 | 43.91972 | -92.40866 | 35927 ft | 363 kts | 256° |
| 2026-05-06 00:06 | 43.90627 | -92.47630 | 35926 ft | 363 kts | 256° |
| 2026-05-06 00:07 | 43.89279 | -92.54392 | 35933 ft | 363 kts | 256° |
| 2026-05-06 00:07 | 43.87935 | -92.61110 | 35927 ft | 364 kts | 256° |
| 2026-05-06 00:08 | 43.86577 | -92.67877 | 35931 ft | 364 kts | 256° |
| 2026-05-06 00:08 | 43.85221 | -92.74606 | 35935 ft | 364 kts | 256° |
| 2026-05-06 00:09 | 43.83852 | -92.81381 | 35927 ft | 364 kts | 255° |
| 2026-05-06 00:09 | 43.82487 | -92.88111 | 35925 ft | 365 kts | 255° |
| 2026-05-06 00:10 | 43.81110 | -92.94879 | 35924 ft | 365 kts | 255° |
| 2026-05-06 00:10 | 43.79729 | -93.01644 | 35921 ft | 365 kts | 255° |
| 2026-05-06 00:11 | 43.78350 | -93.08374 | 35916 ft | 365 kts | 255° |
| 2026-05-06 00:11 | 43.76961 | -93.15137 | 35933 ft | 365 kts | 255° |
| 2026-05-06 00:12 | 43.75568 | -93.21892 | 35931 ft | 365 kts | 255° |
| 2026-05-06 00:12 | 43.74175 | -93.28625 | 35924 ft | 365 kts | 255° |
| 2026-05-06 00:13 | 43.72770 | -93.35392 | 35927 ft | 366 kts | 255° |
| 2026-05-06 00:13 | 43.71360 | -93.42165 | 35928 ft | 366 kts | 255° |
| 2026-05-06 00:14 | 43.69954 | -93.48890 | 35926 ft | 366 kts | 255° |
| 2026-05-06 00:14 | 43.68536 | -93.55657 | 35933 ft | 366 kts | 255° |
| 2026-05-06 00:15 | 43.67121 | -93.62382 | 35938 ft | 366 kts | 255° |
| 2026-05-06 00:15 | 43.65692 | -93.69154 | 35943 ft | 366 kts | 255° |
| 2026-05-06 00:16 | 43.64262 | -93.75912 | 35954 ft | 366 kts | 255° |
| 2026-05-06 00:16 | 43.62833 | -93.82637 | 35957 ft | 366 kts | 255° |
| 2026-05-06 00:17 | 43.61391 | -93.89407 | 35962 ft | 367 kts | 255° |
| 2026-05-06 00:17 | 43.59953 | -93.96133 | 35962 ft | 367 kts | 255° |
| 2026-05-06 00:18 | 43.58501 | -94.02906 | 35968 ft | 367 kts | 255° |
| 2026-05-06 00:18 | 43.57053 | -94.09633 | 35967 ft | 368 kts | 255° |
| 2026-05-06 00:19 | 43.55591 | -94.16406 | 35973 ft | 368 kts | 255° |
| 2026-05-06 00:19 | 43.54138 | -94.23119 | 35968 ft | 367 kts | 255° |
| 2026-05-06 00:20 | 43.52672 | -94.29864 | 35977 ft | 367 kts | 255° |
| 2026-05-06 00:20 | 43.51204 | -94.36603 | 35982 ft | 367 kts | 255° |
| 2026-05-06 00:21 | 43.49730 | -94.43347 | 35987 ft | 367 kts | 254° |
| 2026-05-06 00:21 | 43.48260 | -94.50048 | 35979 ft | 367 kts | 254° |
| 2026-05-06 00:22 | 43.46776 | -94.56796 | 35977 ft | 368 kts | 254° |
| 2026-05-06 00:22 | 43.45294 | -94.63508 | 35980 ft | 368 kts | 254° |
| 2026-05-06 00:23 | 43.43798 | -94.70267 | 35960 ft | 369 kts | 254° |
| 2026-05-06 00:23 | 43.42306 | -94.76986 | 35966 ft | 369 kts | 254° |
| 2026-05-06 00:24 | 43.40796 | -94.83762 | 35962 ft | 369 kts | 254° |
| 2026-05-06 00:24 | 43.39539 | -94.89387 | 35968 ft | 370 kts | 254° |
| 2026-05-06 00:25 | 43.38024 | -94.96148 | 35971 ft | 370 kts | 254° |
| 2026-05-06 00:25 | 43.36513 | -95.02874 | 35968 ft | 371 kts | 254° |
| 2026-05-06 00:26 | 43.34982 | -95.09662 | 35982 ft | 371 kts | 254° |
| 2026-05-06 00:26 | 43.33457 | -95.16405 | 35973 ft | 372 kts | 253° |
| 2026-05-06 00:27 | 43.31916 | -95.23196 | 35981 ft | 372 kts | 253° |
| 2026-05-06 00:27 | 43.30370 | -95.29988 | 35955 ft | 371 kts | 253° |
| 2026-05-06 00:28 | 43.28834 | -95.36719 | 35980 ft | 371 kts | 253° |
| 2026-05-06 00:28 | 43.27281 | -95.43500 | 35986 ft | 372 kts | 253° |
| 2026-05-06 00:29 | 43.25731 | -95.50247 | 35988 ft | 372 kts | 253° |
| 2026-05-06 00:29 | 43.24170 | -95.57024 | 35990 ft | 373 kts | 253° |
| 2026-05-06 00:30 | 43.22602 | -95.63808 | 35969 ft | 373 kts | 253° |
| 2026-05-06 00:30 | 43.21036 | -95.70562 | 35962 ft | 373 kts | 253° |
| 2026-05-06 00:31 | 43.19455 | -95.77364 | 35966 ft | 374 kts | 253° |
| 2026-05-06 00:31 | 43.17868 | -95.84165 | 35964 ft | 374 kts | 253° |
| 2026-05-06 00:32 | 43.16285 | -95.90933 | 35962 ft | 375 kts | 253° |
| 2026-05-06 00:32 | 43.14686 | -95.97745 | 35971 ft | 375 kts | 253° |
| 2026-05-06 00:33 | 43.13094 | -96.04509 | 35992 ft | 375 kts | 253° |
| 2026-05-06 00:33 | 43.11487 | -96.11315 | 35991 ft | 375 kts | 253° |
| 2026-05-06 00:34 | 43.09884 | -96.18082 | 35992 ft | 376 kts | 253° |
| 2026-05-06 00:34 | 43.08267 | -96.24891 | 35993 ft | 376 kts | 253° |
| 2026-05-06 00:35 | 43.06638 | -96.31727 | 35994 ft | 377 kts | 253° |
| 2026-05-06 00:35 | 43.05019 | -96.38505 | 35958 ft | 377 kts | 252° |
| 2026-05-06 00:36 | 43.03387 | -96.45312 | 35990 ft | 376 kts | 252° |
| 2026-05-06 00:36 | 43.01764 | -96.52063 | 36003 ft | 376 kts | 252° |
| 2026-05-06 00:37 | 43.00123 | -96.58867 | 36017 ft | 376 kts | 252° |
| 2026-05-06 00:37 | 42.98482 | -96.65655 | 36019 ft | 376 kts | 252° |
| 2026-05-06 00:38 | 42.96842 | -96.72414 | 36018 ft | 377 kts | 252° |
| 2026-05-06 00:38 | 42.95188 | -96.79216 | 36019 ft | 377 kts | 252° |
| 2026-05-06 00:39 | 42.93530 | -96.86008 | 36033 ft | 377 kts | 252° |
| 2026-05-06 00:39 | 42.91873 | -96.92778 | 36032 ft | 378 kts | 252° |
| 2026-05-06 00:40 | 42.90201 | -96.99593 | 36037 ft | 378 kts | 252° |
| 2026-05-06 00:40 | 42.88532 | -97.06371 | 36016 ft | 379 kts | 252° |
| 2026-05-06 00:41 | 42.86848 | -97.13193 | 36025 ft | 379 kts | 252° |
| 2026-05-06 00:41 | 42.85168 | -97.19976 | 36028 ft | 379 kts | 252° |
| 2026-05-06 00:42 | 42.83474 | -97.26799 | 36032 ft | 379 kts | 252° |
| 2026-05-06 00:42 | 42.81787 | -97.33570 | 36045 ft | 379 kts | 252° |
| 2026-05-06 00:43 | 42.80087 | -97.40375 | 36052 ft | 379 kts | 252° |
| 2026-05-06 00:43 | 42.78394 | -97.47134 | 36054 ft | 379 kts | 252° |
| 2026-05-06 00:44 | 42.76682 | -97.53945 | 36031 ft | 379 kts | 252° |
| 2026-05-06 00:44 | 42.74972 | -97.60733 | 36044 ft | 379 kts | 251° |
| 2026-05-06 00:45 | 42.73265 | -97.67486 | 36055 ft | 379 kts | 251° |
| 2026-05-06 00:45 | 42.71539 | -97.74299 | 36053 ft | 380 kts | 251° |
| 2026-05-06 00:46 | 42.69817 | -97.81072 | 36050 ft | 381 kts | 251° |
| 2026-05-06 00:46 | 42.68079 | -97.87891 | 36053 ft | 381 kts | 251° |
| 2026-05-06 00:47 | 42.66346 | -97.94668 | 36048 ft | 381 kts | 251° |
| 2026-05-06 00:47 | 42.64598 | -98.01486 | 36047 ft | 382 kts | 251° |
| 2026-05-06 00:48 | 42.62855 | -98.08268 | 36042 ft | 382 kts | 251° |
| 2026-05-06 00:48 | 42.61093 | -98.15101 | 36049 ft | 382 kts | 251° |
| 2026-05-06 00:49 | 42.59338 | -98.21888 | 36047 ft | 383 kts | 251° |
| 2026-05-06 00:49 | 42.57567 | -98.28716 | 36047 ft | 383 kts | 251° |
| 2026-05-06 00:50 | 42.55793 | -98.35537 | 36045 ft | 383 kts | 251° |
| 2026-05-06 00:50 | 42.54024 | -98.42320 | 36042 ft | 383 kts | 251° |
| 2026-05-06 00:51 | 42.52240 | -98.49143 | 36028 ft | 384 kts | 251° |
| 2026-05-06 00:51 | 42.50448 | -98.55977 | 36029 ft | 384 kts | 251° |
| 2026-05-06 00:52 | 42.48662 | -98.62773 | 36029 ft | 384 kts | 251° |
| 2026-05-06 00:52 | 42.46702 | -98.69528 | 36025 ft | 385 kts | 244° |
| 2026-05-06 00:53 | 42.43918 | -98.75702 | 36024 ft | 387 kts | 240° |
| 2026-05-06 00:53 | 42.41048 | -98.81881 | 36032 ft | 388 kts | 240° |
| 2026-05-06 00:54 | 42.38179 | -98.88080 | 36028 ft | 388 kts | 240° |
| 2026-05-06 00:54 | 42.35329 | -98.94242 | 36034 ft | 388 kts | 240° |
| 2026-05-06 00:55 | 42.32459 | -99.00439 | 36034 ft | 388 kts | 240° |
| 2026-05-06 00:55 | 42.29589 | -99.06626 | 36036 ft | 388 kts | 240° |
| 2026-05-06 00:56 | 42.26718 | -99.12803 | 36030 ft | 389 kts | 240° |
| 2026-05-06 00:56 | 42.23854 | -99.18951 | 36017 ft | 389 kts | 240° |
| 2026-05-06 00:57 | 42.20966 | -99.25138 | 36022 ft | 389 kts | 240° |
| 2026-05-06 00:57 | 42.18073 | -99.31324 | 36025 ft | 389 kts | 240° |
| 2026-05-06 00:58 | 42.15173 | -99.37509 | 36029 ft | 390 kts | 240° |
| 2026-05-06 00:58 | 42.12288 | -99.43652 | 36018 ft | 390 kts | 240° |
| 2026-05-06 00:59 | 42.09379 | -99.49832 | 36014 ft | 390 kts | 240° |
| 2026-05-06 00:59 | 42.06482 | -99.55976 | 36017 ft | 390 kts | 240° |
| 2026-05-06 01:00 | 42.03563 | -99.62152 | 36016 ft | 390 kts | 240° |
| 2026-05-06 01:00 | 42.00665 | -99.68271 | 36016 ft | 390 kts | 240° |
| 2026-05-06 01:01 | 41.97740 | -99.74436 | 36006 ft | 389 kts | 240° |
| 2026-05-06 01:01 | 41.94840 | -99.80535 | 36012 ft | 389 kts | 240° |
| 2026-05-06 01:02 | 41.91917 | -99.86670 | 36000 ft | 390 kts | 240° |
| 2026-05-06 01:02 | 41.88986 | -99.92810 | 36007 ft | 390 kts | 240° |
| 2026-05-06 01:03 | 41.86071 | -99.98903 | 36009 ft | 390 kts | 240° |
| 2026-05-06 01:03 | 41.83124 | -100.05051 | 35995 ft | 391 kts | 240° |
| 2026-05-06 01:04 | 41.80178 | -100.11185 | 36000 ft | 391 kts | 240° |
| 2026-05-06 01:04 | 41.77248 | -100.17272 | 36003 ft | 391 kts | 240° |
| 2026-05-06 01:05 | 41.74295 | -100.23396 | 35996 ft | 391 kts | 240° |
| 2026-05-06 01:05 | 41.71334 | -100.29522 | 35992 ft | 391 kts | 240° |
| 2026-05-06 01:06 | 41.68388 | -100.35607 | 36006 ft | 392 kts | 240° |
| 2026-05-06 01:06 | 41.65410 | -100.41746 | 36001 ft | 393 kts | 240° |
| 2026-05-06 01:07 | 41.62447 | -100.47840 | 36007 ft | 393 kts | 240° |
| 2026-05-06 01:07 | 41.59455 | -100.53981 | 36003 ft | 393 kts | 240° |
| 2026-05-06 01:08 | 41.56477 | -100.60082 | 36005 ft | 394 kts | 239° |
| 2026-05-06 01:08 | 41.53473 | -100.66224 | 36019 ft | 394 kts | 239° |
| 2026-05-06 01:09 | 41.50487 | -100.72320 | 36022 ft | 394 kts | 239° |
| 2026-05-06 01:09 | 41.47474 | -100.78456 | 35998 ft | 394 kts | 240° |
| 2026-05-06 01:10 | 41.44479 | -100.84543 | 36024 ft | 394 kts | 240° |
| 2026-05-06 01:10 | 41.41477 | -100.90635 | 36041 ft | 394 kts | 240° |
| 2026-05-06 01:11 | 41.38456 | -100.96752 | 36035 ft | 395 kts | 239° |
| 2026-05-06 01:11 | 41.35735 | -101.03072 | 36046 ft | 391 kts | 248° |
| 2026-05-06 01:12 | 41.33645 | -101.09765 | 36045 ft | 391 kts | 249° |
| 2026-05-06 01:12 | 41.31564 | -101.16425 | 36042 ft | 392 kts | 248° |
| 2026-05-06 01:13 | 41.29426 | -101.23098 | 36037 ft | 392 kts | 248° |
| 2026-05-06 01:13 | 41.27281 | -101.29727 | 36047 ft | 392 kts | 248° |
| 2026-05-06 01:14 | 41.24028 | -101.39745 | 36035 ft | 393 kts | 248° |
| 2026-05-06 01:14 | 41.21871 | -101.46388 | 36041 ft | 393 kts | 248° |
| 2026-05-06 01:15 | 41.19723 | -101.53080 | 36025 ft | 394 kts | 248° |
| 2026-05-06 01:15 | 41.17590 | -101.59732 | 36020 ft | 393 kts | 248° |
| 2026-05-06 01:16 | 41.15438 | -101.66415 | 36030 ft | 393 kts | 248° |
| 2026-05-06 01:16 | 41.13643 | -101.71978 | 36023 ft | 394 kts | 248° |
| 2026-05-06 01:17 | 41.11124 | -101.79759 | 36027 ft | 395 kts | 248° |
| 2026-05-06 01:17 | 41.09315 | -101.85336 | 36028 ft | 395 kts | 248° |
| 2026-05-06 01:18 | 41.07136 | -101.92035 | 36027 ft | 395 kts | 248° |
| 2026-05-06 01:18 | 41.04952 | -101.98735 | 36030 ft | 396 kts | 248° |
| 2026-05-06 01:19 | 41.02779 | -102.05387 | 36020 ft | 396 kts | 248° |
| 2026-05-06 01:19 | 41.00586 | -102.12083 | 36033 ft | 396 kts | 248° |
| 2026-05-06 01:20 | 40.98383 | -102.18797 | 36036 ft | 397 kts | 248° |
| 2026-05-06 01:20 | 40.96187 | -102.25468 | 36029 ft | 397 kts | 248° |
| 2026-05-06 01:21 | 40.93968 | -102.32188 | 36021 ft | 398 kts | 248° |
| 2026-05-06 01:21 | 40.91762 | -102.38859 | 36011 ft | 398 kts | 248° |
| 2026-05-06 01:22 | 40.89537 | -102.45574 | 36006 ft | 398 kts | 248° |
| 2026-05-06 01:22 | 40.87308 | -102.52286 | 35989 ft | 399 kts | 247° |
| 2026-05-06 01:23 | 40.85086 | -102.58958 | 35846 ft | 402 kts | 247° |
| 2026-05-06 01:23 | 40.83951 | -102.62362 | 35380 ft | 401 kts | 247° |
| 2026-05-06 01:23 | 40.82825 | -102.65733 | 34700 ft | 401 kts | 247° |
| 2026-05-06 01:24 | 40.81697 | -102.69109 | 34080 ft | 400 kts | 247° |
| 2026-05-06 01:24 | 40.80581 | -102.72442 | 33288 ft | 402 kts | 247° |
| 2026-05-06 01:24 | 40.79450 | -102.75816 | 32560 ft | 401 kts | 247° |
| 2026-05-06 01:24 | 40.78339 | -102.79127 | 32485 ft | 387 kts | 247° |
| 2026-05-06 01:25 | 40.77259 | -102.82342 | 32274 ft | 377 kts | 247° |
| 2026-05-06 01:25 | 40.76209 | -102.85463 | 32113 ft | 367 kts | 247° |
| 2026-05-06 01:25 | 40.75189 | -102.88492 | 31920 ft | 357 kts | 247° |
| 2026-05-06 01:25 | 40.74179 | -102.91483 | 31576 ft | 360 kts | 247° |
| 2026-05-06 01:26 | 40.73148 | -102.94532 | 31274 ft | 376 kts | 247° |
| 2026-05-06 01:26 | 40.72067 | -102.97725 | 30911 ft | 382 kts | 247° |
| 2026-05-06 01:26 | 40.70982 | -103.00925 | 30546 ft | 380 kts | 247° |
| 2026-05-06 01:26 | 40.69902 | -103.04106 | 30186 ft | 378 kts | 247° |
| 2026-05-06 01:27 | 40.68844 | -103.07218 | 29806 ft | 375 kts | 247° |
| 2026-05-06 01:27 | 40.67783 | -103.10339 | 29419 ft | 372 kts | 247° |
| 2026-05-06 01:27 | 40.66726 | -103.13447 | 29061 ft | 369 kts | 247° |
| 2026-05-06 01:27 | 40.65679 | -103.16521 | 28733 ft | 366 kts | 247° |
| 2026-05-06 01:28 | 40.64637 | -103.19577 | 28373 ft | 364 kts | 247° |
| 2026-05-06 01:28 | 40.63597 | -103.22621 | 28035 ft | 363 kts | 247° |
| 2026-05-06 01:28 | 40.62575 | -103.25613 | 27694 ft | 361 kts | 247° |
| 2026-05-06 01:28 | 40.61541 | -103.28635 | 27353 ft | 360 kts | 247° |
| 2026-05-06 01:29 | 40.60510 | -103.31646 | 27018 ft | 360 kts | 247° |
| 2026-05-06 01:29 | 40.59493 | -103.34618 | 26686 ft | 359 kts | 247° |
| 2026-05-06 01:29 | 40.58465 | -103.37616 | 26349 ft | 358 kts | 247° |
| 2026-05-06 01:29 | 40.57439 | -103.40611 | 26012 ft | 358 kts | 247° |
| 2026-05-06 01:30 | 40.56414 | -103.43597 | 25689 ft | 357 kts | 247° |
| 2026-05-06 01:30 | 40.55403 | -103.46533 | 25320 ft | 356 kts | 248° |
| 2026-05-06 01:30 | 40.54382 | -103.49501 | 25006 ft | 355 kts | 248° |
| 2026-05-06 01:30 | 40.53365 | -103.52456 | 24678 ft | 354 kts | 248° |
| 2026-05-06 01:31 | 40.52348 | -103.55411 | 24355 ft | 353 kts | 248° |
| 2026-05-06 01:31 | 40.51333 | -103.58357 | 24032 ft | 352 kts | 248° |
| 2026-05-06 01:31 | 40.50324 | -103.61285 | 23703 ft | 351 kts | 248° |
| 2026-05-06 01:31 | 40.49325 | -103.64180 | 23326 ft | 350 kts | 248° |
| 2026-05-06 01:32 | 40.48324 | -103.67079 | 22964 ft | 348 kts | 248° |
| 2026-05-06 01:32 | 40.47325 | -103.69971 | 22619 ft | 345 kts | 248° |
| 2026-05-06 01:32 | 40.46334 | -103.72832 | 22295 ft | 342 kts | 248° |
| 2026-05-06 01:32 | 40.45342 | -103.75676 | 21977 ft | 340 kts | 246° |
| 2026-05-06 01:33 | 40.44231 | -103.78361 | 21722 ft | 338 kts | 243° |
| 2026-05-06 01:33 | 40.43013 | -103.80996 | 21462 ft | 336 kts | 242° |
| 2026-05-06 01:33 | 40.41782 | -103.83599 | 21204 ft | 334 kts | 242° |
| 2026-05-06 01:33 | 40.40562 | -103.86193 | 20937 ft | 333 kts | 242° |
| 2026-05-06 01:34 | 40.39351 | -103.88788 | 20689 ft | 332 kts | 242° |
| 2026-05-06 01:34 | 40.38151 | -103.91379 | 20443 ft | 332 kts | 242° |
| 2026-05-06 01:34 | 40.36966 | -103.93947 | 20191 ft | 333 kts | 242° |
| 2026-05-06 01:34 | 40.35768 | -103.96548 | 19930 ft | 330 kts | 243° |
| 2026-05-06 01:35 | 40.34588 | -103.99107 | 19663 ft | 324 kts | 243° |
| 2026-05-06 01:35 | 40.33430 | -104.01615 | 19417 ft | 317 kts | 243° |
| 2026-05-06 01:35 | 40.32315 | -104.04028 | 19178 ft | 310 kts | 243° |
| 2026-05-06 01:35 | 40.31046 | -104.06301 | 18886 ft | 312 kts | 230° |
| 2026-05-06 01:36 | 40.29396 | -104.08152 | 18619 ft | 311 kts | 225° |
| 2026-05-06 01:36 | 40.27719 | -104.09909 | 18343 ft | 307 kts | 225° |
| 2026-05-06 01:36 | 40.26054 | -104.11651 | 18014 ft | 304 kts | 224° |
| 2026-05-06 01:36 | 40.24421 | -104.13372 | 17724 ft | 300 kts | 224° |
| 2026-05-06 01:37 | 40.22806 | -104.15085 | 17439 ft | 296 kts | 224° |
| 2026-05-06 01:37 | 40.21214 | -104.16780 | 17160 ft | 294 kts | 224° |
| 2026-05-06 01:37 | 40.19631 | -104.18471 | 16891 ft | 291 kts | 224° |
| 2026-05-06 01:37 | 40.18082 | -104.20126 | 16628 ft | 290 kts | 224° |
| 2026-05-06 01:38 | 40.16522 | -104.21791 | 16347 ft | 288 kts | 223° |
| 2026-05-06 01:38 | 40.14967 | -104.23450 | 16086 ft | 288 kts | 223° |
| 2026-05-06 01:38 | 40.13411 | -104.25110 | 15825 ft | 289 kts | 223° |
| 2026-05-06 01:38 | 40.11852 | -104.26770 | 15566 ft | 289 kts | 223° |
| 2026-05-06 01:39 | 40.10312 | -104.28409 | 15302 ft | 290 kts | 223° |
| 2026-05-06 01:39 | 40.08741 | -104.30080 | 15037 ft | 291 kts | 222° |
| 2026-05-06 01:39 | 40.07167 | -104.31753 | 14772 ft | 292 kts | 222° |
| 2026-05-06 01:39 | 40.05589 | -104.33429 | 14511 ft | 292 kts | 222° |
| 2026-05-06 01:40 | 40.04004 | -104.35112 | 14243 ft | 294 kts | 222° |
| 2026-05-06 01:40 | 40.02424 | -104.36788 | 13975 ft | 292 kts | 221° |
| 2026-05-06 01:40 | 40.00855 | -104.38453 | 13685 ft | 288 kts | 221° |
| 2026-05-06 01:40 | 39.99305 | -104.40095 | 13388 ft | 285 kts | 221° |
| 2026-05-06 01:41 | 39.97797 | -104.41691 | 13118 ft | 281 kts | 221° |
| 2026-05-06 01:41 | 39.96281 | -104.43296 | 12881 ft | 278 kts | 221° |
| 2026-05-06 01:41 | 39.94783 | -104.44886 | 12682 ft | 276 kts | 221° |
| 2026-05-06 01:41 | 39.93286 | -104.46474 | 12474 ft | 276 kts | 221° |
| 2026-05-06 01:42 | 39.91808 | -104.48041 | 12285 ft | 278 kts | 220° |
| 2026-05-06 01:42 | 39.90220 | -104.49454 | 12052 ft | 277 kts | 204° |
| 2026-05-06 01:42 | 39.88356 | -104.50014 | 11873 ft | 274 kts | 187° |
| 2026-05-06 01:42 | 39.86452 | -104.50081 | 11668 ft | 271 kts | 182° |
| 2026-05-06 01:43 | 39.84583 | -104.50070 | 11470 ft | 267 kts | 182° |
| 2026-05-06 01:43 | 39.82736 | -104.50071 | 11274 ft | 262 kts | 182° |
| 2026-05-06 01:43 | 39.80947 | -104.50087 | 11095 ft | 258 kts | 182° |
| 2026-05-06 01:43 | 39.79171 | -104.50118 | 10923 ft | 253 kts | 183° |
| 2026-05-06 01:44 | 39.77409 | -104.50178 | 10671 ft | 252 kts | 182° |
| 2026-05-06 01:44 | 39.75657 | -104.50222 | 10431 ft | 250 kts | 181° |
| 2026-05-06 01:44 | 39.73923 | -104.50229 | 10176 ft | 247 kts | 179° |
| 2026-05-06 01:44 | 39.72221 | -104.50184 | 9922 ft | 240 kts | 176° |
| 2026-05-06 01:45 | 39.70569 | -104.50087 | 9669 ft | 239 kts | 175° |
| 2026-05-06 01:45 | 39.68901 | -104.49980 | 9397 ft | 240 kts | 176° |
| 2026-05-06 01:45 | 39.67227 | -104.49896 | 9134 ft | 240 kts | 178° |
| 2026-05-06 01:45 | 39.65576 | -104.49834 | 9061 ft | 238 kts | 176° |
| 2026-05-06 01:46 | 39.63959 | -104.49747 | 9025 ft | 234 kts | 176° |
| 2026-05-06 01:46 | 39.62355 | -104.50180 | 8970 ft | 241 kts | 210° |
| 2026-05-06 01:46 | 39.61282 | -104.51814 | 8968 ft | 243 kts | 248° |
| 2026-05-06 01:46 | 39.61066 | -104.53979 | 8997 ft | 244 kts | 267° |
| 2026-05-06 01:47 | 39.61020 | -104.56193 | 8978 ft | 245 kts | 267° |
| 2026-05-06 01:47 | 39.60978 | -104.58410 | 8967 ft | 246 kts | 267° |
| 2026-05-06 01:47 | 39.60944 | -104.60601 | 8967 ft | 246 kts | 268° |
| 2026-05-06 01:47 | 39.60906 | -104.62813 | 8976 ft | 244 kts | 269° |
| 2026-05-06 01:48 | 39.61272 | -104.64944 | 8965 ft | 245 kts | 302° |
| 2026-05-06 01:48 | 39.62536 | -104.66356 | 8970 ft | 243 kts | 341° |
| 2026-05-06 01:48 | 39.64183 | -104.66519 | 9013 ft | 239 kts | 9° |
| 2026-05-06 01:48 | 39.65846 | -104.66280 | 8855 ft | 239 kts | 4° |
| 2026-05-06 01:49 | 39.67465 | -104.66227 | 8540 ft | 225 kts | 2° |
| 2026-05-06 01:49 | 39.68969 | -104.66219 | 8251 ft | 212 kts | 2° |
| 2026-05-06 01:49 | 39.70407 | -104.66206 | 7971 ft | 200 kts | 2° |
| 2026-05-06 01:49 | 39.71765 | -104.66190 | 7719 ft | 188 kts | 2° |
| 2026-05-06 01:50 | 39.73029 | -104.66175 | 7521 ft | 171 kts | 5° |
| 2026-05-06 01:50 | 39.74178 | -104.66161 | 7246 ft | 158 kts | 3° |
| 2026-05-06 01:50 | 39.75232 | -104.66148 | 7097 ft | 153 kts | 3° |
| 2026-05-06 01:50 | 39.76306 | -104.66133 | 6865 ft | 152 kts | 3° |
| 2026-05-06 01:51 | 39.77160 | -104.66123 | 6709 ft | 149 kts | 3° |
| 2026-05-06 01:51 | 39.78189 | -104.66110 | 6489 ft | 147 kts | 3° |
| 2026-05-06 01:51 | 39.79216 | -104.66098 | 6272 ft | 148 kts | 2° |
| 2026-05-06 01:51 | 39.80242 | -104.66086 | 6023 ft | 145 kts | 2° |
| 2026-05-06 01:52 | 39.81231 | -104.66075 | 5809 ft | 140 kts | 2° |
| 2026-05-06 01:52 | 39.82221 | -104.66063 | 5638 ft | 143 kts | 1° |
| 2026-05-06 01:52 | 39.83190 | -104.66054 | 5452 ft | 137 kts | 2° |
| 2026-05-06 01:52 | 39.84064 | -104.66045 | 5423 ft | 111 kts | 359° |
| 2026-05-06 01:53 | 39.84716 | -104.66035 | 5405 ft | 76 kts | 0° |
| 2026-05-06 01:53 | 39.85120 | -104.66057 | 5393 ft | 50 kts | 348° |
| 2026-05-06 01:53 | 39.85286 | -104.66173 | 5390 ft | 13 kts | 291° |
| 2026-05-06 01:53 | 39.85293 | -104.66288 | 5398 ft | 13 kts | 270° |
| 2026-05-06 01:54 | 39.85293 | -104.66416 | 5388 ft | 18 kts | 270° |
| 2026-05-06 01:54 | 39.85282 | -104.66579 | 5386 ft | 18 kts | 250° |
| 2026-05-06 01:54 | 39.85273 | -104.66738 | 5386 ft | 17 kts | 271° |
| 2026-05-06 01:54 | 39.85275 | -104.66893 | 5386 ft | 17 kts | 271° |
| 2026-05-06 01:55 | 39.85288 | -104.67037 | 5381 ft | 16 kts | 306° |
| 2026-05-06 01:55 | 39.85329 | -104.67053 | 5385 ft | 0 kts | 2° |